createdAt,value
2018-11-07T00:00:51.228Z,100676.65
2018-11-07T00:03:22.233Z,100669.06
2018-11-07T00:05:53.600Z,100665.86
2018-11-07T00:08:24.798Z,100668.53
2018-11-07T00:11:03.330Z,100668.59
2018-11-07T00:13:35.247Z,100670.68
2018-11-07T00:16:07.166Z,100663.27
2018-11-07T00:18:39.201Z,100660.59
2018-11-07T00:21:10.635Z,100656.06
2018-11-07T00:23:42.546Z,100651.97
2018-11-07T00:26:14.970Z,100649.44
2018-11-07T00:28:47.565Z,100653.55
2018-11-07T00:31:18.992Z,100653.08
2018-11-07T00:33:50.433Z,100653.48
2018-11-07T00:36:22.248Z,100655.05
2018-11-07T00:38:54.419Z,100651.56
2018-11-07T00:41:26.550Z,100636.84
2018-11-07T00:43:58.504Z,100640.31
2018-11-07T00:46:29.707Z,100638.48
2018-11-07T00:49:01.579Z,100634.61
2018-11-07T00:51:33.380Z,100628.73
2018-11-07T00:54:04.781Z,100629.17
2018-11-07T00:56:36.700Z,100628.11
2018-11-07T00:59:07.730Z,100633.23
2018-11-07T01:01:38.777Z,100628.60
2018-11-07T01:04:10.650Z,100635.25
2018-11-07T01:06:42.262Z,100632.62
2018-11-07T01:09:13.911Z,100642.52
2018-11-07T01:11:45.412Z,100640.99
2018-11-07T01:14:16.851Z,100651.97
2018-11-07T01:16:48.905Z,100647.23
2018-11-07T01:19:20.739Z,100645.91
2018-11-07T01:21:51.925Z,100626.20
2018-11-07T01:24:23.885Z,100623.25
2018-11-07T01:26:54.925Z,100617.31
2018-11-07T01:29:26.977Z,100621.38
2018-11-07T01:31:58.091Z,100615.84
2018-11-07T01:34:30.010Z,100627.22
2018-11-07T01:37:02.021Z,100619.02
2018-11-07T01:39:33.090Z,100617.86
2018-11-07T01:42:04.445Z,100621.16
2018-11-07T01:44:35.330Z,100616.93
2018-11-07T01:47:06.467Z,100619.55
2018-11-07T01:49:39.157Z,100615.77
2018-11-07T01:52:10.554Z,100613.83
2018-11-07T01:54:41.925Z,100603.91
2018-11-07T01:57:13.072Z,100601.77
2018-11-07T01:59:44.533Z,100614.77
2018-11-07T02:02:16.543Z,100605.59
2018-11-07T02:04:47.577Z,100600.52
2018-11-07T02:07:19.952Z,100608.39
2018-11-07T02:09:51.802Z,100611.26
2018-11-07T02:12:33.160Z,100619.72
2018-11-07T02:15:04.222Z,100607.69
2018-11-07T02:17:35.638Z,100610.54
2018-11-07T02:20:07.468Z,100604.84
2018-11-07T02:22:38.479Z,100605.14
2018-11-07T02:25:10.562Z,100608.84
2018-11-07T02:27:43.741Z,100615.83
2018-11-07T02:30:17.014Z,100616.98
2018-11-07T02:32:48.164Z,100616.27
2018-11-07T02:35:19.220Z,100616.98
2018-11-07T02:37:50.583Z,100624.50
2018-11-07T02:40:22.415Z,100631.53
2018-11-07T02:42:54.385Z,100637.09
2018-11-07T02:45:25.396Z,100636.91
2018-11-07T02:47:57.703Z,100639.85
2018-11-07T02:50:29.512Z,100636.16
2018-11-07T02:53:02.065Z,100636.84
2018-11-07T02:55:33.565Z,100636.72
2018-11-07T02:58:06.256Z,100627.27
2018-11-07T03:00:39.173Z,100638.38
2018-11-07T03:03:10.632Z,100632.52
2018-11-07T03:05:42.056Z,100636.23
2018-11-07T03:08:13.919Z,100646.13
2018-11-07T03:10:46.473Z,100650.92
2018-11-07T03:13:18.161Z,100652.27
2018-11-07T03:15:49.684Z,100652.27
2018-11-07T03:18:20.735Z,100653.32
2018-11-07T03:20:52.687Z,100657.20
2018-11-07T03:23:24.743Z,100658.83
2018-11-07T03:25:55.869Z,100657.05
2018-11-07T03:28:27.317Z,100653.23
2018-11-07T03:30:58.725Z,100651.92
2018-11-07T03:33:30.073Z,100649.03
2018-11-07T03:36:02.024Z,100652.23
2018-11-07T03:38:35.797Z,100648.59
2018-11-07T03:41:06.881Z,100646.55
2018-11-07T03:43:38.096Z,100650.03
2018-11-07T03:46:09.094Z,100644.44
2018-11-07T03:48:40.562Z,100640.70
2018-11-07T03:51:11.746Z,100640.08
2018-11-07T03:53:42.722Z,100640.98
2018-11-07T03:56:13.826Z,100651.18
2018-11-07T03:58:46.368Z,100655.03
2018-11-07T04:01:18.281Z,100657.11
2018-11-07T04:03:49.609Z,100658.66
2018-11-07T04:06:21.485Z,100670.06
2018-11-07T04:08:53.955Z,100672.43
2018-11-07T04:11:25.390Z,100669.63
2018-11-07T04:13:57.503Z,100671.35
2018-11-07T04:16:29.570Z,100662.86
2018-11-07T04:19:00.729Z,100664.67
2018-11-07T04:21:33.491Z,100668.40
2018-11-07T04:24:05.294Z,100671.52
2018-11-07T04:26:37.496Z,100665.16
2018-11-07T04:29:09.602Z,100661.02
2018-11-07T04:31:41.751Z,100657.41
2018-11-07T04:34:12.823Z,100653.96
2018-11-07T04:36:43.895Z,100656.94
2018-11-07T04:39:15.881Z,100648.09
2018-11-07T04:41:47.214Z,100646.77
2018-11-07T04:44:18.298Z,100649.47
2018-11-07T04:46:49.340Z,100663.45
2018-11-07T04:49:21.769Z,100664.49
2018-11-07T04:51:54.706Z,100664.21
2018-11-07T04:54:25.889Z,100656.58
2018-11-07T04:56:57.303Z,100659.66
2018-11-07T04:59:29.369Z,100656.48
2018-11-07T05:02:00.903Z,100658.03
2018-11-07T05:04:32.744Z,100661.42
2018-11-07T05:07:04.142Z,100669.44
2018-11-07T05:09:36.982Z,100677.44
2018-11-07T05:12:08.273Z,100671.70
2018-11-07T05:14:41.953Z,100673.36
2018-11-07T05:17:13.338Z,100672.52
2018-11-07T05:19:44.856Z,100665.44
2018-11-07T05:22:17.182Z,100670.27
2018-11-07T05:24:50.534Z,100671.41
2018-11-07T05:27:22.033Z,100666.48
2018-11-07T05:29:54.422Z,100664.63
2018-11-07T05:32:26.899Z,100672.64
2018-11-07T05:34:59.664Z,100678.48
2018-11-07T05:37:32.585Z,100680.34
2018-11-07T05:40:04.939Z,100684.87
2018-11-07T05:42:36.412Z,100693.38
2018-11-07T05:45:07.718Z,100701.67
2018-11-07T05:47:39.006Z,100700.55
2018-11-07T05:50:10.822Z,100697.14
2018-11-07T05:52:44.860Z,100702.27
2018-11-07T05:55:16.329Z,100702.06
2018-11-07T05:57:48.108Z,100702.23
2018-11-07T06:00:19.544Z,100709.81
2018-11-07T06:02:51.882Z,100716.38
2018-11-07T06:05:22.976Z,100704.78
2018-11-07T06:07:54.767Z,100710.23
2018-11-07T06:10:27.405Z,100718.73
2018-11-07T06:12:59.185Z,100712.91
2018-11-07T06:15:31.602Z,100724.50
2018-11-07T06:18:02.672Z,100731.98
2018-11-07T06:20:34.239Z,100733.95
2018-11-07T06:23:05.361Z,100734.97
2018-11-07T06:25:38.101Z,100739.60
2018-11-07T06:28:10.079Z,100736.41
2018-11-07T06:30:41.735Z,100747.09
2018-11-07T06:33:12.824Z,100746.31
2018-11-07T06:35:43.895Z,100747.86
2018-11-07T06:38:16.417Z,100739.08
2018-11-07T06:40:47.557Z,100746.48
2018-11-07T06:43:18.923Z,100743.68
2018-11-07T06:45:51.292Z,100754.73
2018-11-07T06:48:24.673Z,100757.94
2018-11-07T06:50:58.314Z,100760.19
2018-11-07T06:53:31.240Z,100761.45
2018-11-07T06:56:02.437Z,100760.44
2018-11-07T06:58:33.883Z,100756.53
2018-11-07T07:01:06.076Z,100760.64
2018-11-07T07:03:37.281Z,100764.61
2018-11-07T07:06:09.848Z,100763.97
2018-11-07T07:08:41.378Z,100770.13
2018-11-07T07:11:13.969Z,100766.55
2018-11-07T07:13:45.021Z,100767.31
2018-11-07T07:16:17.515Z,100769.99
2018-11-07T07:18:49.443Z,100776.24
2018-11-07T07:21:21.449Z,100771.22
2018-11-07T07:23:53.936Z,100775.44
2018-11-07T07:26:26.237Z,100768.34
2018-11-07T07:29:00.324Z,100780.16
2018-11-07T07:31:31.812Z,100771.96
2018-11-07T07:34:03.243Z,100773.80
2018-11-07T07:36:37.243Z,100768.66
2018-11-07T07:39:08.050Z,100754.60
2018-11-07T07:41:46.030Z,100758.00
2018-11-07T07:44:19.039Z,100758.00
2018-11-07T07:46:50.946Z,100752.66
2018-11-07T07:49:24.045Z,100778.43
2018-11-07T07:51:56.685Z,100783.67
2018-11-07T07:54:37.556Z,100776.70
2018-11-07T07:57:11.165Z,100774.92
2018-11-07T07:59:42.176Z,100782.75
2018-11-07T08:02:14.146Z,100792.70
2018-11-07T08:04:45.325Z,100794.55
2018-11-07T08:07:20.313Z,100794.73
2018-11-07T08:09:49.545Z,100795.35
2018-11-07T08:12:21.294Z,100767.20
2018-11-07T08:14:52.339Z,100796.22
2018-11-07T08:17:23.415Z,100794.05
2018-11-07T08:19:55.100Z,100796.67
2018-11-07T08:22:27.044Z,100789.62
2018-11-07T08:24:58.164Z,100793.84
2018-11-07T08:27:29.315Z,100804.43
2018-11-07T08:30:01.440Z,100813.67
2018-11-07T08:32:33.051Z,100812.17
2018-11-07T08:35:04.586Z,100809.06
2018-11-07T08:37:37.127Z,100811.15
2018-11-07T08:40:13.713Z,100807.78
2018-11-07T08:42:44.837Z,100808.59
2018-11-07T08:45:16.247Z,100801.62
2018-11-07T08:47:47.877Z,100795.23
2018-11-07T08:50:21.485Z,100803.84
2018-11-07T08:52:53.168Z,100802.49
2018-11-07T08:55:24.964Z,100801.07
2018-11-07T08:57:56.045Z,100803.19
2018-11-07T09:00:27.107Z,100803.14
2018-11-07T09:02:59.774Z,100808.14
2018-11-07T09:05:30.836Z,100805.27
2018-11-07T09:08:02.305Z,100803.55
2018-11-07T09:10:35.070Z,100805.28
2018-11-07T09:13:07.014Z,100805.20
2018-11-07T09:15:38.095Z,100811.11
2018-11-07T09:18:09.601Z,100810.42
2018-11-07T09:20:40.652Z,100813.64
2018-11-07T09:23:11.737Z,100817.13
2018-11-07T09:25:43.614Z,100815.05
2018-11-07T09:28:16.197Z,100814.91
2018-11-07T09:30:47.219Z,100808.64
2018-11-07T09:33:18.715Z,100808.48
2018-11-07T09:38:22.505Z,100810.10
2018-11-07T09:40:54.008Z,100815.77
2018-11-07T09:43:25.089Z,100814.41
2018-11-07T09:45:57.288Z,100825.73
2018-11-07T09:48:28.359Z,100827.06
2018-11-07T09:51:00.799Z,100824.00
2018-11-07T09:53:31.946Z,100823.36
2018-11-07T09:56:03.628Z,100827.58
2018-11-07T09:58:35.432Z,100829.12
2018-11-07T10:01:06.893Z,100823.44
2018-11-07T10:03:38.160Z,100834.73
2018-11-07T10:06:09.512Z,100835.77
2018-11-07T10:08:40.680Z,100837.45
2018-11-07T10:11:11.763Z,100843.42
2018-11-07T10:13:42.849Z,100837.59
2018-11-07T10:16:14.305Z,100841.89
2018-11-07T10:18:47.784Z,100848.59
2018-11-07T10:21:19.179Z,100843.00
2018-11-07T10:23:51.481Z,100844.36
2018-11-07T10:26:23.669Z,100840.36
2018-11-07T10:28:56.420Z,100842.39
2018-11-07T10:31:27.811Z,100844.69
2018-11-07T10:34:00.339Z,100840.95
2018-11-07T10:36:31.430Z,100847.27
2018-11-07T10:39:03.653Z,100838.53
2018-11-07T10:41:36.496Z,100837.28
2018-11-07T10:44:08.632Z,100834.06
2018-11-07T10:46:39.680Z,100835.06
2018-11-07T10:49:11.311Z,100830.78
2018-11-07T10:51:43.424Z,100841.41
2018-11-07T10:54:15.435Z,100838.90
2018-11-07T10:56:46.863Z,100840.31
2018-11-07T10:59:18.543Z,100843.30
2018-11-07T11:02:23.491Z,100840.54
2018-11-07T11:04:54.604Z,100842.38
2018-11-07T11:07:26.251Z,100841.59
2018-11-07T11:09:58.379Z,100841.65
2018-11-07T11:12:29.845Z,100836.09
2018-11-07T11:15:01.716Z,100839.01
2018-11-07T11:17:34.238Z,100844.28
2018-11-07T11:20:05.934Z,100844.61
2018-11-07T11:22:37.080Z,100843.59
2018-11-07T11:25:09.359Z,100842.41
2018-11-07T11:27:40.465Z,100835.75
2018-11-07T11:30:12.692Z,100841.22
2018-11-07T11:32:43.728Z,100833.95
2018-11-07T11:35:14.881Z,100832.36
2018-11-07T11:37:46.325Z,100839.44
2018-11-07T11:40:17.389Z,100840.02
2018-11-07T11:42:53.240Z,100836.33
2018-11-07T11:45:24.360Z,100838.80
2018-11-07T11:47:55.839Z,100834.50
2018-11-07T11:50:27.087Z,100832.07
2018-11-07T11:52:58.164Z,100831.81
2018-11-07T11:55:29.197Z,100829.94
2018-11-07T11:58:01.408Z,100829.42
2018-11-07T12:00:32.520Z,100829.67
2018-11-07T12:03:04.536Z,100831.07
2018-11-07T12:05:36.499Z,100829.20
2018-11-07T12:08:08.525Z,100830.55
2018-11-07T12:10:39.695Z,100833.50
2018-11-07T12:13:12.165Z,100833.00
2018-11-07T12:15:45.391Z,100832.23
2018-11-07T12:18:16.464Z,100830.39
2018-11-07T12:20:47.551Z,100834.19
2018-11-07T12:23:18.602Z,100834.44
2018-11-07T12:25:49.685Z,100827.67
2018-11-07T12:28:21.813Z,100827.67
2018-11-07T12:30:53.267Z,100832.57
2018-11-07T12:33:25.636Z,100829.02
2018-11-07T12:35:58.288Z,100827.13
2018-11-07T12:38:30.673Z,100827.13
2018-11-07T12:41:01.804Z,100831.22
2018-11-07T12:43:33.895Z,100830.95
2018-11-07T12:46:06.230Z,100834.22
2018-11-07T12:48:38.729Z,100824.45
2018-11-07T12:51:11.104Z,100823.34
2018-11-07T12:53:44.188Z,100835.83
2018-11-07T12:56:15.283Z,100835.83
2018-11-07T12:58:46.378Z,100830.97
2018-11-07T13:01:19.577Z,100827.17
2018-11-07T13:03:53.752Z,100827.70
2018-11-07T13:06:24.978Z,100834.49
2018-11-07T13:08:56.933Z,100834.49
2018-11-07T13:11:28.072Z,100831.50
2018-11-07T13:13:59.027Z,100836.66
2018-11-07T13:16:31.159Z,100827.70
2018-11-07T13:19:03.640Z,100838.02
2018-11-07T13:21:34.661Z,100835.57
2018-11-07T13:24:06.130Z,100841.28
2018-11-07T13:26:38.474Z,100838.29
2018-11-07T13:29:09.592Z,100838.29
2018-11-07T13:31:41.107Z,100854.58
2018-11-07T13:34:13.811Z,100845.33
2018-11-07T13:36:46.347Z,100845.33
2018-11-07T13:39:18.156Z,100841.52
2018-11-07T13:41:48.891Z,100841.52
2018-11-07T13:44:20.366Z,100848.03
2018-11-07T13:46:51.509Z,100848.03
2018-11-07T13:49:23.959Z,100851.58
2018-11-07T13:51:54.975Z,100841.25
2018-11-07T13:54:28.330Z,100841.25
2018-11-07T13:57:00.338Z,100840.97
2018-11-07T13:59:31.771Z,100842.22
2018-11-07T14:02:03.694Z,100842.22
2018-11-07T14:04:35.277Z,100834.30
2018-11-07T14:07:07.074Z,100836.90
2018-11-07T14:09:38.685Z,100843.30
2018-11-07T14:12:10.062Z,100843.30
2018-11-07T14:14:41.135Z,100848.98
2018-11-07T14:17:12.274Z,100847.61
2018-11-07T14:19:44.260Z,100844.34
2018-11-07T14:22:16.679Z,100839.41
2018-11-07T14:24:47.705Z,100847.30
2018-11-07T14:27:18.934Z,100854.22
2018-11-07T14:29:51.141Z,100858.18
2018-11-07T14:32:22.264Z,100853.25
2018-11-07T14:34:53.291Z,100856.08
2018-11-07T14:37:24.826Z,100866.55
2018-11-07T14:39:56.447Z,100869.66
2018-11-07T14:42:28.435Z,100869.48
2018-11-07T14:44:59.668Z,100869.41
2018-11-07T14:47:30.731Z,100878.55
2018-11-07T14:50:02.700Z,100872.20
2018-11-07T14:52:35.021Z,100874.58
2018-11-07T14:55:06.172Z,100881.53
2018-11-07T14:57:37.318Z,100884.63
2018-11-07T15:00:12.672Z,100886.89
2018-11-07T15:02:44.435Z,100886.79
2018-11-07T15:05:16.281Z,100893.37
2018-11-07T15:07:49.864Z,100894.94
2018-11-07T15:10:22.001Z,100891.14
2018-11-07T15:12:53.062Z,100890.73
2018-11-07T15:15:24.562Z,100887.04
2018-11-07T15:17:57.752Z,100890.70
2018-11-07T15:20:28.835Z,100892.66
2018-11-07T15:23:00.850Z,100893.55
2018-11-07T15:25:32.365Z,100893.20
2018-11-07T15:28:04.499Z,100894.08
2018-11-07T15:30:36.379Z,100902.58
2018-11-07T15:33:07.842Z,100899.70
2018-11-07T15:35:41.872Z,100900.85
2018-11-07T15:38:13.886Z,100900.75
2018-11-07T15:40:45.127Z,100904.30
2018-11-07T15:43:16.249Z,100905.64
2018-11-07T15:45:49.325Z,100903.50
2018-11-07T15:48:20.412Z,100900.96
2018-11-07T15:51:08.464Z,100902.17
2018-11-07T15:53:39.668Z,100897.88
2018-11-07T15:56:11.173Z,100905.79
2018-11-07T15:58:42.279Z,100914.20
2018-11-07T16:01:14.404Z,100914.98
2018-11-07T16:03:51.689Z,100916.95
2018-11-07T16:06:23.007Z,100916.59
2018-11-07T16:08:55.237Z,100920.01
2018-11-07T16:11:30.874Z,100927.66
2018-11-07T16:14:03.276Z,100931.28
2018-11-07T16:16:40.317Z,100936.95
2018-11-07T16:19:12.703Z,100842.92
2018-11-07T16:21:57.049Z,100944.39
2018-11-07T16:24:28.126Z,100942.51
2018-11-07T16:26:59.135Z,100945.87
2018-11-07T16:29:30.460Z,100949.03
2018-11-07T16:32:02.433Z,100950.08
2018-11-07T16:34:33.548Z,100953.23
2018-11-07T16:37:11.903Z,100959.47
2018-11-07T16:39:45.045Z,100958.38
2018-11-07T16:42:17.595Z,100958.17
2018-11-07T16:44:48.707Z,100956.48
2018-11-07T16:47:20.823Z,100961.16
2018-11-07T16:49:51.869Z,100959.02
2018-11-07T16:52:31.412Z,100970.05
2018-11-07T16:55:02.860Z,100976.04
2018-11-07T16:57:35.499Z,100976.27
2018-11-07T17:00:09.197Z,100979.16
2018-11-07T17:02:42.556Z,100987.14
2018-11-07T17:05:16.699Z,100992.89
2018-11-07T17:07:49.026Z,100993.20
2018-11-07T17:10:20.629Z,100989.16
2018-11-07T17:12:53.062Z,100993.54
2018-11-07T17:15:25.138Z,100990.94
2018-11-07T17:17:56.514Z,100993.45
2018-11-07T17:20:29.919Z,100994.36
2018-11-07T17:23:03.449Z,100998.08
2018-11-07T17:25:35.876Z,101007.78
2018-11-07T17:28:08.565Z,101006.55
2018-11-07T17:30:42.164Z,101006.39
2018-11-07T17:33:13.655Z,101003.77
2018-11-07T17:35:48.948Z,101008.47
2018-11-07T17:38:21.182Z,101002.06
2018-11-07T17:40:58.001Z,101006.11
2018-11-07T17:43:32.108Z,101006.34
2018-11-07T17:46:03.692Z,100997.53
2018-11-07T17:48:35.529Z,100994.84
2018-11-07T17:51:08.538Z,100999.77
2018-11-07T17:53:39.716Z,101009.58
2018-11-07T17:56:10.802Z,101007.00
2018-11-07T17:58:43.854Z,101007.92
2018-11-07T18:01:16.349Z,101011.33
2018-11-07T18:03:48.862Z,101015.80
2018-11-07T18:06:28.253Z,101012.09
2018-11-07T18:09:01.167Z,101015.05
2018-11-07T18:11:32.446Z,101020.05
2018-11-07T18:14:04.563Z,101020.46
2018-11-07T18:16:41.400Z,101015.27
2018-11-07T18:19:14.790Z,101021.89
2018-11-07T18:21:47.217Z,101029.17
2018-11-07T18:24:24.336Z,101031.02
2018-11-07T18:26:55.351Z,101031.15
2018-11-07T18:29:28.537Z,101036.73
2018-11-07T18:32:02.155Z,101038.03
2018-11-07T18:34:35.816Z,101035.83
2018-11-07T18:37:07.838Z,101035.66
2018-11-07T18:39:39.777Z,101039.11
2018-11-07T18:42:11.835Z,101042.86
2018-11-07T18:44:43.888Z,101042.54
2018-11-07T18:47:14.981Z,101042.77
2018-11-07T18:49:46.038Z,101044.29
2018-11-07T18:52:19.473Z,101042.62
2018-11-07T18:54:50.564Z,101040.45
2018-11-07T18:57:21.779Z,101043.61
2018-11-07T18:59:52.943Z,101050.63
2018-11-07T19:02:25.008Z,101054.37
2018-11-07T19:04:56.983Z,101053.75
2018-11-07T19:07:28.143Z,101056.97
2018-11-07T19:10:00.512Z,101052.16
2018-11-07T19:12:35.961Z,101060.92
2018-11-07T19:15:17.049Z,101061.67
2018-11-07T19:17:52.666Z,100938.88
2018-11-07T19:20:27.788Z,101062.29
2018-11-07T19:23:01.101Z,101068.08
2018-11-07T19:25:33.059Z,101075.73
2018-11-07T19:28:05.092Z,101078.91
2018-11-07T19:30:37.150Z,101084.91
2018-11-07T19:33:09.083Z,101087.50
2018-11-07T19:35:41.256Z,101083.58
2018-11-07T19:38:12.857Z,101081.20
2018-11-07T19:40:44.877Z,101072.43
2018-11-07T19:43:16.036Z,101085.13
2018-11-07T19:45:47.124Z,101087.61
2018-11-07T19:48:18.840Z,101097.60
2018-11-07T19:50:54.358Z,101094.92
2018-11-07T19:53:26.792Z,101099.27
2018-11-07T19:56:00.506Z,101095.34
2018-11-07T19:58:31.680Z,101101.53
2018-11-07T20:01:03.741Z,101099.36
2018-11-07T20:03:36.188Z,101106.91
2018-11-07T20:06:07.502Z,101116.17
2018-11-07T20:08:38.824Z,101118.02
2018-11-07T20:11:10.435Z,101116.57
2018-11-07T20:13:43.345Z,101121.31
2018-11-07T20:16:14.992Z,101123.36
2018-11-07T20:18:46.216Z,101130.48
2018-11-07T20:21:19.438Z,101131.40
2018-11-07T20:23:51.808Z,101133.16
2018-11-07T20:26:24.726Z,101143.77
2018-11-07T20:28:57.859Z,101144.29
2018-11-07T20:31:28.896Z,101140.27
2018-11-07T20:34:00.927Z,101143.23
2018-11-07T20:36:32.035Z,101139.53
2018-11-07T20:39:04.217Z,101144.89
2018-11-07T20:41:35.752Z,101147.67
2018-11-07T20:44:07.185Z,101148.38
2018-11-07T20:46:38.669Z,101149.22
2018-11-07T20:49:10.737Z,101145.73
2018-11-07T20:51:41.775Z,101158.59
2018-11-07T20:54:25.114Z,101158.48
2018-11-07T20:56:57.279Z,101160.36
2018-11-07T20:59:29.380Z,101162.08
2018-11-07T21:02:00.570Z,101165.18
2018-11-07T21:04:31.901Z,101157.15
2018-11-07T21:07:04.106Z,101160.74
2018-11-07T21:09:35.472Z,101162.39
2018-11-07T21:12:07.343Z,101172.79
2018-11-07T21:14:39.985Z,101179.91
2018-11-07T21:17:12.317Z,101175.47
2018-11-07T21:19:43.405Z,101187.41
2018-11-07T21:22:14.906Z,101187.82
2018-11-07T21:24:48.048Z,101188.83
2018-11-07T21:27:19.814Z,101188.30
2018-11-07T21:29:51.137Z,101189.75
2018-11-07T21:32:23.059Z,101186.58
2018-11-07T21:34:54.310Z,101188.94
2018-11-07T21:37:26.289Z,101187.81
2018-11-07T21:39:57.406Z,101201.20
2018-11-07T21:42:30.663Z,101198.20
2018-11-07T21:45:01.702Z,101206.78
2018-11-07T21:47:32.745Z,101204.16
2018-11-07T21:50:03.739Z,101205.50
2018-11-07T21:52:34.829Z,101206.58
2018-11-07T21:55:06.541Z,101202.98
2018-11-07T21:57:37.914Z,101205.98
2018-11-07T22:00:18.125Z,101207.33
2018-11-07T22:02:52.573Z,101211.45
2018-11-07T22:05:23.970Z,101217.41
2018-11-07T22:07:54.997Z,101213.81
2018-11-07T22:10:27.568Z,101216.00
2018-11-07T22:12:59.525Z,101217.13
2018-11-07T22:15:32.808Z,101222.88
2018-11-07T22:18:05.225Z,101225.48
2018-11-07T22:20:37.642Z,101228.16
2018-11-07T22:23:08.759Z,101230.84
2018-11-07T22:25:40.224Z,101228.86
2018-11-07T22:28:11.668Z,101233.83
2018-11-07T22:30:42.682Z,101237.11
2018-11-07T22:33:14.269Z,101236.72
2018-11-07T22:35:47.120Z,101243.31
2018-11-07T22:38:18.793Z,101252.16
2018-11-07T22:40:49.719Z,101250.23
2018-11-07T22:43:21.703Z,101250.86
2018-11-07T22:45:52.889Z,101256.72
2018-11-07T22:48:24.494Z,101254.67
2018-11-07T22:50:56.006Z,101247.23
2018-11-07T22:53:28.411Z,101252.59
2018-11-07T22:55:59.601Z,101250.23
2018-11-07T22:58:31.050Z,101261.16
2018-11-07T23:01:20.531Z,101257.55
2018-11-07T23:03:53.099Z,101269.51
2018-11-07T23:06:24.945Z,101264.56
2018-11-07T23:08:56.808Z,101275.27
2018-11-07T23:11:27.857Z,101271.25
2018-11-07T23:13:59.636Z,101272.80
2018-11-07T23:16:32.036Z,101277.33
2018-11-07T23:19:03.118Z,101282.27
2018-11-07T23:21:34.304Z,101281.95
2018-11-07T23:24:05.807Z,101276.69
2018-11-07T23:26:36.924Z,101279.37
2018-11-07T23:29:08.451Z,101281.73
2018-11-07T23:31:39.472Z,101285.48
2018-11-07T23:34:11.024Z,101287.00
2018-11-07T23:36:42.202Z,101288.98
2018-11-07T23:39:13.217Z,101296.01
2018-11-07T23:41:44.235Z,101299.39
2018-11-07T23:44:15.337Z,101300.41
2018-11-07T23:46:48.042Z,101297.63
2018-11-07T23:49:19.271Z,101302.08
2018-11-07T23:51:52.095Z,101311.05
2018-11-07T23:54:24.652Z,101305.28
2018-11-07T23:56:56.494Z,101302.07
2018-11-07T23:59:27.525Z,101306.20
